createdAt,value
2018-06-21T00:00:50.029Z,8.10
2018-06-21T00:03:18.420Z,6.70
2018-06-21T00:05:47.204Z,6.47
2018-06-21T00:08:15.594Z,7.57
2018-06-21T00:10:44.029Z,6.40
2018-06-21T00:13:12.465Z,6.87
2018-06-21T00:15:40.928Z,9.73
2018-06-21T00:18:09.324Z,8.87
2018-06-21T00:20:37.769Z,8.60
2018-06-21T00:23:06.189Z,8.93
2018-06-21T00:25:35.353Z,9.93
2018-06-21T00:28:03.703Z,9.53
2018-06-21T00:30:32.177Z,9.07
2018-06-21T00:33:00.609Z,7.83
2018-06-21T00:35:29.309Z,8.27
2018-06-21T00:37:57.751Z,9.33
2018-06-21T00:40:25.871Z,8.37
2018-06-21T00:42:54.250Z,7.67
2018-06-21T00:45:22.807Z,8.23
2018-06-21T00:47:51.205Z,10.03
2018-06-21T00:50:19.551Z,9.57
2018-06-21T00:52:47.660Z,10.07
2018-06-21T00:55:26.022Z,9.53
2018-06-21T00:57:54.401Z,7.37
2018-06-21T01:00:22.736Z,8.40
2018-06-21T01:02:51.103Z,7.13
2018-06-21T01:05:19.427Z,8.20
2018-06-21T01:07:47.791Z,6.20
2018-06-21T01:10:16.136Z,8.37
2018-06-21T01:12:44.531Z,9.73
2018-06-21T01:15:12.880Z,7.53
2018-06-21T01:17:41.262Z,7.53
2018-06-21T01:20:09.604Z,9.83
2018-06-21T01:22:37.981Z,8.30
2018-06-21T01:25:06.325Z,8.33
2018-06-21T01:27:34.695Z,8.73
2018-06-21T01:30:03.060Z,7.30
2018-06-21T01:32:31.428Z,8.30
2018-06-21T01:34:59.763Z,8.17
2018-06-21T01:37:28.132Z,7.13
2018-06-21T01:39:56.471Z,10.30
2018-06-21T01:42:24.567Z,9.90
2018-06-21T01:44:52.920Z,7.77
2018-06-21T01:47:21.283Z,10.17
2018-06-21T01:49:49.606Z,8.47
2018-06-21T01:52:17.984Z,8.57
2018-06-21T01:54:46.379Z,8.23
2018-06-21T01:57:14.775Z,7.60
2018-06-21T01:59:43.130Z,8.80
2018-06-21T02:02:11.596Z,7.67
2018-06-21T02:04:40.089Z,8.60
2018-06-21T02:07:08.564Z,8.50
2018-06-21T02:09:36.923Z,8.63
2018-06-21T02:12:05.316Z,6.80
2018-06-21T02:14:33.700Z,10.30
2018-06-21T02:17:02.052Z,8.97
2018-06-21T02:19:30.549Z,7.83
2018-06-21T02:21:58.924Z,9.17
2018-06-21T02:24:27.304Z,7.53
2018-06-21T02:26:55.663Z,9.10
2018-06-21T02:29:24.062Z,9.00
2018-06-21T02:31:52.413Z,10.40
2018-06-21T02:34:20.875Z,8.90
2018-06-21T02:36:49.191Z,10.87
2018-06-21T02:39:17.304Z,10.63
2018-06-21T02:41:45.647Z,9.17
2018-06-21T02:44:13.747Z,9.33
2018-06-21T02:46:42.112Z,11.23
2018-06-21T02:49:10.482Z,10.07
2018-06-21T02:51:38.931Z,8.03
2018-06-21T02:54:07.324Z,9.67
2018-06-21T02:56:35.701Z,9.30
2018-06-21T02:59:04.080Z,9.37
2018-06-21T03:01:32.428Z,9.00
2018-06-21T03:04:00.834Z,12.27
2018-06-21T03:06:29.180Z,10.80
2018-06-21T03:08:57.560Z,10.50
2018-06-21T03:11:25.968Z,10.00
2018-06-21T03:13:55.787Z,9.13
2018-06-21T03:16:24.780Z,10.30
2018-06-21T03:18:53.192Z,10.83
2018-06-21T03:21:21.572Z,9.70
2018-06-21T03:23:49.959Z,10.43
2018-06-21T03:26:18.320Z,10.87
2018-06-21T03:28:46.410Z,9.43
2018-06-21T03:31:14.753Z,10.80
2018-06-21T03:33:43.139Z,9.43
2018-06-21T03:36:11.501Z,10.40
2018-06-21T03:38:39.905Z,12.60
2018-06-21T03:41:08.255Z,9.33
2018-06-21T03:43:36.363Z,10.90
2018-06-21T03:46:04.435Z,9.67
2018-06-21T03:48:32.867Z,8.77
2018-06-21T03:51:01.220Z,12.37
2018-06-21T03:53:29.609Z,13.80
2018-06-21T03:55:57.974Z,12.23
2018-06-21T03:58:26.340Z,10.43
2018-06-21T04:00:54.720Z,10.40
2018-06-21T04:03:22.819Z,8.37
2018-06-21T04:05:51.225Z,10.23
2018-06-21T04:08:19.651Z,10.07
2018-06-21T04:10:48.029Z,8.63
2018-06-21T04:13:16.127Z,9.07
2018-06-21T04:15:44.525Z,12.20
2018-06-21T04:18:12.875Z,12.70
2018-06-21T04:20:41.283Z,10.20
2018-06-21T04:23:09.638Z,11.43
2018-06-21T04:25:38.368Z,9.57
2018-06-21T04:28:06.738Z,9.87
2018-06-21T04:30:35.138Z,9.43
2018-06-21T04:33:03.532Z,10.23
2018-06-21T04:35:31.926Z,8.93
2018-06-21T04:38:00.013Z,9.60
2018-06-21T04:40:28.435Z,11.10
2018-06-21T04:42:56.831Z,10.07
2018-06-21T04:45:25.280Z,12.83
2018-06-21T04:47:53.692Z,10.53
2018-06-21T04:50:22.088Z,12.83
2018-06-21T04:52:50.452Z,9.83
2018-06-21T04:55:18.845Z,11.20
2018-06-21T04:57:47.216Z,10.70
2018-06-21T05:00:15.607Z,10.77
2018-06-21T05:02:43.988Z,10.87
2018-06-21T05:05:12.428Z,11.23
2018-06-21T05:07:41.784Z,9.47
2018-06-21T05:10:10.245Z,10.03
2018-06-21T05:12:38.673Z,10.27
2018-06-21T05:15:07.073Z,10.83
2018-06-21T05:17:35.428Z,9.37
2018-06-21T05:20:03.846Z,10.20
2018-06-21T05:22:32.246Z,12.03
2018-06-21T05:25:00.649Z,9.90
2018-06-21T05:27:29.040Z,9.50
2018-06-21T05:29:57.490Z,9.97
2018-06-21T05:32:25.948Z,8.17
2018-06-21T05:34:55.083Z,11.40
2018-06-21T05:37:23.544Z,10.83
2018-06-21T05:39:52.064Z,12.50
2018-06-21T05:42:20.623Z,10.23
2018-06-21T05:44:49.104Z,10.17
2018-06-21T05:47:18.059Z,9.87
2018-06-21T05:49:46.481Z,8.33
2018-06-21T05:52:14.940Z,11.40
2018-06-21T05:54:43.465Z,10.57
2018-06-21T05:57:11.928Z,10.47
2018-06-21T05:59:40.313Z,13.93
2018-06-21T06:02:08.728Z,12.17
2018-06-21T06:04:37.142Z,12.43
2018-06-21T06:07:05.630Z,11.93
2018-06-21T06:09:34.056Z,14.73
2018-06-21T06:12:02.571Z,13.83
2018-06-21T06:14:30.965Z,13.60
2018-06-21T06:16:59.398Z,15.43
2018-06-21T06:19:28.749Z,16.60
2018-06-21T06:21:57.227Z,19.07
2018-06-21T06:24:26.633Z,17.20
2018-06-21T06:26:55.069Z,17.93
2018-06-21T06:29:23.497Z,15.73
2018-06-21T06:31:51.925Z,18.47
2018-06-21T06:34:20.361Z,13.27
2018-06-21T06:36:48.837Z,10.23
2018-06-21T06:39:19.535Z,8.07
2018-06-21T06:41:50.091Z,4.93
2018-06-21T06:44:19.055Z,2.87
2018-06-21T06:46:47.488Z,4.27
2018-06-21T06:49:15.864Z,2.53
2018-06-21T06:51:44.277Z,1.77
2018-06-21T06:54:12.836Z,2.10
2018-06-21T06:56:41.247Z,1.87
2018-06-21T06:59:09.652Z,2.80
2018-06-21T07:01:38.051Z,4.23
2018-06-21T07:04:06.564Z,1.83
2018-06-21T07:06:35.004Z,2.87
2018-06-21T07:09:03.975Z,2.53
2018-06-21T07:11:32.538Z,1.83
2018-06-21T07:14:00.712Z,3.17
2018-06-21T07:16:29.114Z,2.67
2018-06-21T07:18:57.517Z,3.53
2018-06-21T07:21:25.949Z,3.07
2018-06-21T07:23:54.410Z,1.93
2018-06-21T07:26:22.958Z,3.03
2018-06-21T07:28:51.365Z,2.23
2018-06-21T07:31:19.793Z,2.60
2018-06-21T07:33:48.774Z,1.70
2018-06-21T07:36:16.932Z,3.10
2018-06-21T07:38:45.361Z,2.67
2018-06-21T07:41:13.884Z,2.17
2018-06-21T07:43:42.378Z,2.50
2018-06-21T07:46:10.781Z,1.90
2018-06-21T07:48:38.908Z,3.63
2018-06-21T07:51:07.381Z,2.67
2018-06-21T07:53:35.940Z,2.70
2018-06-21T07:56:04.475Z,4.20
2018-06-21T07:58:32.955Z,2.63
2018-06-21T08:01:01.387Z,2.93
2018-06-21T08:03:30.176Z,3.07
2018-06-21T08:05:59.432Z,3.87
2018-06-21T08:08:28.435Z,6.17
2018-06-21T08:10:57.323Z,3.43
2018-06-21T08:13:25.779Z,5.03
2018-06-21T08:15:54.216Z,6.07
2018-06-21T08:18:22.668Z,6.63
2018-06-21T08:20:51.073Z,4.63
2018-06-21T08:23:19.565Z,4.47
2018-06-21T08:25:47.864Z,3.50
2018-06-21T08:28:16.369Z,6.50
2018-06-21T08:30:45.213Z,6.37
2018-06-21T08:33:14.235Z,5.60
2018-06-21T08:35:44.409Z,7.63
2018-06-21T08:38:12.780Z,6.10
2018-06-21T08:40:41.228Z,6.53
2018-06-21T08:43:09.652Z,4.73
2018-06-21T08:45:38.655Z,5.67
2018-06-21T08:48:08.197Z,5.47
2018-06-21T08:50:37.544Z,5.70
2018-06-21T08:53:06.069Z,6.13
2018-06-21T08:55:35.414Z,4.27
2018-06-21T08:58:04.100Z,7.90
2018-06-21T09:00:32.741Z,6.17
2018-06-21T09:03:01.730Z,7.07
2018-06-21T09:05:30.160Z,3.90
2018-06-21T09:07:58.772Z,5.00
2018-06-21T09:10:28.016Z,2.90
2018-06-21T09:12:56.777Z,5.63
2018-06-21T09:15:25.884Z,6.13
2018-06-21T09:17:54.199Z,5.03
2018-06-21T09:20:23.501Z,3.97
2018-06-21T09:22:52.256Z,4.43
2018-06-21T09:25:21.248Z,3.50
2018-06-21T09:27:50.282Z,3.03
2018-06-21T09:30:20.000Z,3.97
2018-06-21T09:32:48.761Z,4.73
2018-06-21T09:35:17.242Z,5.53
2018-06-21T09:37:51.406Z,6.33
2018-06-21T09:40:25.705Z,3.77
2018-06-21T09:44:03.823Z,4.00
2018-06-21T09:46:34.411Z,2.73
2018-06-21T09:49:03.222Z,1.73
2018-06-21T09:51:31.947Z,7.13
2018-06-21T09:54:00.544Z,3.87
2018-06-21T09:56:29.595Z,3.50
2018-06-21T09:58:58.124Z,3.47
2018-06-21T10:01:26.192Z,2.97
2018-06-21T10:03:54.621Z,2.23
2018-06-21T10:06:22.974Z,4.67
2018-06-21T10:08:51.345Z,2.30
2018-06-21T10:11:19.710Z,4.77
2018-06-21T10:13:47.816Z,1.70
2018-06-21T10:16:16.549Z,3.00
2018-06-21T10:18:45.581Z,3.30
2018-06-21T10:21:14.000Z,3.40
2018-06-21T10:23:42.498Z,4.07
2018-06-21T10:26:10.901Z,3.00
2018-06-21T10:28:39.340Z,3.37
2018-06-21T10:31:07.806Z,3.67
2018-06-21T10:33:37.345Z,4.23
2018-06-21T10:36:05.770Z,3.83
2018-06-21T10:38:34.300Z,7.87
2018-06-21T10:41:02.736Z,5.13
2018-06-21T10:43:31.213Z,2.83
2018-06-21T10:45:59.687Z,4.73
2018-06-21T10:48:28.149Z,1.63
2018-06-21T10:50:56.618Z,3.20
2018-06-21T10:53:25.358Z,3.57
2018-06-21T10:55:53.889Z,3.70
2018-06-21T10:58:22.329Z,1.97
2018-06-21T11:00:50.827Z,3.03
2018-06-21T11:03:19.685Z,3.40
2018-06-21T11:05:48.136Z,3.43
2018-06-21T11:08:16.520Z,4.83
2018-06-21T11:10:45.108Z,3.57
2018-06-21T11:13:13.616Z,3.30
2018-06-21T11:15:41.874Z,2.60
2018-06-21T11:18:10.317Z,4.13
2018-06-21T11:20:38.876Z,2.67
2018-06-21T11:23:07.283Z,3.00
2018-06-21T11:25:35.737Z,5.10
2018-06-21T11:28:04.245Z,4.50
2018-06-21T11:30:32.650Z,7.77
2018-06-21T11:33:01.590Z,4.97
2018-06-21T11:35:30.050Z,1.93
2018-06-21T11:37:58.228Z,1.43
2018-06-21T11:40:26.749Z,2.70
2018-06-21T11:42:55.738Z,3.20
2018-06-21T11:45:24.152Z,1.60
2018-06-21T11:47:52.704Z,2.20
2018-06-21T11:50:21.936Z,2.17
2018-06-21T11:52:50.381Z,6.47
2018-06-21T11:55:19.236Z,8.87
2018-06-21T11:57:47.717Z,3.60
2018-06-21T12:00:16.230Z,5.40
2018-06-21T12:02:44.688Z,8.83
2018-06-21T12:05:13.155Z,2.83
2018-06-21T12:07:41.567Z,4.37
2018-06-21T12:10:10.082Z,3.03
2018-06-21T12:12:38.544Z,3.30
2018-06-21T12:15:07.060Z,4.63
2018-06-21T12:17:36.245Z,6.07
2018-06-21T12:20:04.765Z,5.67
2018-06-21T12:22:33.276Z,4.20
2018-06-21T12:25:01.718Z,4.03
2018-06-21T12:27:30.174Z,7.20
2018-06-21T12:29:58.653Z,4.90
2018-06-21T12:32:27.184Z,6.90
2018-06-21T12:34:55.328Z,5.57
2018-06-21T12:37:23.886Z,2.30
2018-06-21T12:39:53.128Z,4.60
2018-06-21T12:42:21.577Z,5.60
2018-06-21T12:44:50.057Z,4.37
2018-06-21T12:47:18.629Z,6.33
2018-06-21T12:49:47.584Z,4.73
2018-06-21T12:52:15.743Z,4.33
2018-06-21T12:54:44.169Z,2.90
2018-06-21T12:57:12.981Z,2.07
2018-06-21T12:59:41.424Z,2.50
2018-06-21T13:02:09.934Z,3.70
2018-06-21T13:04:39.284Z,2.57
2018-06-21T13:07:07.736Z,1.80
2018-06-21T13:09:47.388Z,4.23
2018-06-21T13:12:28.881Z,1.87
2018-06-21T13:14:57.592Z,1.60
2018-06-21T13:17:26.854Z,1.63
2018-06-21T13:19:55.325Z,0.83
2018-06-21T13:22:24.036Z,1.53
2018-06-21T13:24:53.068Z,1.20
2018-06-21T13:27:21.535Z,3.00
2018-06-21T13:29:50.021Z,1.83
2018-06-21T13:32:18.678Z,5.23
2018-06-21T13:34:47.112Z,1.83
2018-06-21T13:37:15.589Z,2.07
2018-06-21T13:39:44.008Z,3.50
2018-06-21T13:42:12.452Z,2.37
2018-06-21T13:44:41.486Z,3.93
2018-06-21T13:47:10.120Z,3.43
2018-06-21T13:49:38.601Z,2.80
2018-06-21T13:52:07.132Z,1.63
2018-06-21T13:54:35.647Z,3.53
2018-06-21T13:57:03.879Z,4.80
2018-06-21T13:59:32.297Z,2.27
2018-06-21T14:02:00.766Z,1.57
2018-06-21T14:04:29.152Z,2.57
2018-06-21T14:06:57.612Z,1.70
2018-06-21T14:09:26.169Z,1.83
2018-06-21T14:11:54.684Z,3.57
2018-06-21T14:14:23.700Z,3.50
2018-06-21T14:16:52.191Z,3.27
2018-06-21T14:19:20.694Z,2.80
2018-06-21T14:21:48.831Z,3.87
2018-06-21T14:24:17.252Z,4.33
2018-06-21T14:26:45.702Z,2.83
2018-06-21T14:29:14.116Z,4.87
2018-06-21T14:31:42.655Z,2.47
2018-06-21T14:34:11.078Z,3.43
2018-06-21T14:36:39.504Z,4.53
2018-06-21T14:39:08.816Z,2.60
2018-06-21T14:41:37.456Z,4.07
2018-06-21T14:44:05.970Z,3.53
2018-06-21T14:46:34.456Z,2.67
2018-06-21T14:49:02.925Z,9.27
2018-06-21T14:51:31.521Z,2.20
2018-06-21T14:53:59.971Z,5.40
2018-06-21T14:56:28.401Z,3.60
2018-06-21T14:58:56.872Z,3.23
2018-06-21T15:01:25.313Z,3.43
2018-06-21T15:03:53.780Z,2.60
2018-06-21T15:06:22.600Z,2.17
2018-06-21T15:08:51.047Z,1.60
2018-06-21T15:11:19.606Z,2.17
2018-06-21T15:13:48.879Z,4.57
2018-06-21T15:16:19.067Z,8.33
2018-06-21T15:18:47.780Z,3.77
2018-06-21T15:21:16.721Z,3.47
2018-06-21T15:23:45.281Z,3.13
2018-06-21T15:26:13.673Z,1.53
2018-06-21T15:28:42.525Z,3.03
2018-06-21T15:31:10.917Z,2.63
2018-06-21T15:33:39.354Z,1.37
2018-06-21T15:36:07.753Z,1.87
2018-06-21T15:38:36.221Z,2.23
2018-06-21T15:41:04.642Z,3.37
2018-06-21T15:43:33.081Z,0.87
2018-06-21T15:46:01.237Z,3.07
2018-06-21T15:48:29.364Z,1.47
2018-06-21T15:50:57.796Z,1.73
2018-06-21T15:53:26.143Z,2.90
2018-06-21T15:55:54.564Z,0.93
2018-06-21T15:58:22.764Z,0.70
2018-06-21T16:00:51.223Z,1.67
2018-06-21T16:03:19.698Z,2.67
2018-06-21T16:05:47.855Z,1.50
2018-06-21T16:08:16.910Z,1.37
2018-06-21T16:10:45.293Z,3.10
2018-06-21T16:13:16.413Z,3.33
2018-06-21T16:15:46.067Z,2.60
2018-06-21T16:18:14.552Z,3.97
2018-06-21T16:20:43.277Z,2.73
2018-06-21T16:23:11.934Z,2.50
2018-06-21T16:25:40.344Z,2.43
2018-06-21T16:28:09.248Z,1.43
2018-06-21T16:30:37.757Z,2.83
2018-06-21T16:33:06.789Z,1.17
2018-06-21T16:35:35.242Z,1.10
2018-06-21T16:38:03.818Z,1.43
2018-06-21T16:40:32.480Z,2.60
2018-06-21T16:43:00.839Z,1.17
2018-06-21T16:45:29.237Z,2.50
2018-06-21T16:47:57.817Z,3.57
2018-06-21T16:50:25.923Z,2.63
2018-06-21T16:52:54.432Z,2.17
2018-06-21T16:55:22.835Z,3.57
2018-06-21T16:57:51.280Z,1.73
2018-06-21T17:00:19.681Z,3.20
2018-06-21T17:02:48.044Z,2.30
2018-06-21T17:05:16.515Z,3.67
2018-06-21T17:07:44.894Z,2.70
2018-06-21T17:10:14.431Z,2.40
2018-06-21T17:12:42.796Z,1.53
2018-06-21T17:15:11.197Z,1.37
2018-06-21T17:17:39.529Z,3.47
2018-06-21T17:20:07.892Z,2.43
2018-06-21T17:22:36.388Z,2.57
2018-06-21T17:25:04.856Z,2.23
2018-06-21T17:27:33.264Z,1.67
2018-06-21T17:30:02.198Z,2.33
2018-06-21T17:32:30.649Z,0.80
2018-06-21T17:34:59.072Z,2.63
2018-06-21T17:37:28.088Z,0.97
2018-06-21T17:39:56.612Z,2.47
2018-06-21T17:42:25.004Z,0.70
2018-06-21T17:44:53.394Z,1.47
2018-06-21T17:47:21.786Z,1.60
2018-06-21T17:49:50.172Z,2.23
2018-06-21T17:52:18.335Z,3.83
2018-06-21T17:54:46.790Z,1.93
2018-06-21T17:57:15.320Z,3.37
2018-06-21T17:59:43.732Z,1.83
2018-06-21T18:02:12.132Z,1.97
2018-06-21T18:04:40.567Z,2.23
2018-06-21T18:07:08.985Z,1.80
2018-06-21T18:09:38.278Z,2.00
2018-06-21T18:12:07.948Z,2.93
2018-06-21T18:14:38.416Z,2.73
2018-06-21T18:17:08.333Z,2.07
2018-06-21T18:19:37.805Z,2.23
2018-06-21T18:22:07.625Z,3.27
2018-06-21T18:24:36.033Z,1.13
2018-06-21T18:27:04.947Z,4.50
2018-06-21T18:29:34.268Z,3.77
2018-06-21T18:32:03.234Z,2.83
2018-06-21T18:34:31.903Z,3.10
2018-06-21T18:37:00.360Z,2.47
2018-06-21T18:39:28.901Z,0.80
2018-06-21T18:41:57.363Z,3.30
2018-06-21T18:44:25.837Z,2.57
2018-06-21T18:46:54.397Z,1.87
2018-06-21T18:49:22.824Z,2.90
2018-06-21T18:51:51.285Z,1.33
2018-06-21T18:54:19.764Z,2.97
2018-06-21T18:56:48.196Z,0.90
2018-06-21T18:59:16.344Z,3.07
2018-06-21T19:01:44.844Z,1.37
2018-06-21T19:04:13.015Z,1.77
2018-06-21T19:06:46.708Z,2.30
2018-06-21T19:09:20.372Z,2.90
2018-06-21T19:11:54.233Z,4.30
2018-06-21T19:14:22.654Z,3.13
2018-06-21T19:16:51.205Z,3.03
2018-06-21T19:19:19.640Z,1.90
2018-06-21T19:21:48.153Z,1.50
2018-06-21T19:24:16.624Z,4.40
2018-06-21T19:26:45.056Z,1.60
2018-06-21T19:29:13.473Z,1.33
2018-06-21T19:31:41.980Z,2.07
2018-06-21T19:34:10.414Z,1.17
2018-06-21T19:36:38.961Z,2.10
2018-06-21T19:39:09.941Z,1.83
2018-06-21T19:41:38.950Z,0.80
2018-06-21T19:44:08.103Z,0.57
2018-06-21T19:46:36.558Z,2.43
2018-06-21T19:49:04.700Z,1.50
2018-06-21T19:51:33.159Z,2.13
2018-06-21T19:54:01.925Z,2.70
2018-06-21T19:56:30.460Z,2.80
2018-06-21T19:58:59.459Z,2.03
2018-06-21T20:01:27.865Z,2.23
2018-06-21T20:03:56.035Z,2.67
2018-06-21T20:06:25.446Z,3.43
2018-06-21T20:08:53.961Z,2.23
2018-06-21T20:11:27.786Z,2.63
2018-06-21T20:13:56.572Z,3.23
2018-06-21T20:16:26.534Z,7.17
2018-06-21T20:18:55.024Z,4.97
2018-06-21T20:21:23.220Z,8.37
2018-06-21T20:23:52.274Z,2.00
2018-06-21T20:26:21.547Z,1.97
2018-06-21T20:28:49.968Z,4.37
2018-06-21T20:31:18.684Z,3.97
2018-06-21T20:33:49.002Z,6.00
2018-06-21T20:36:17.540Z,3.00
2018-06-21T20:38:46.033Z,5.13
2018-06-21T20:41:15.413Z,3.00
2018-06-21T20:43:43.816Z,2.63
2018-06-21T20:48:45.662Z,1.97
2018-06-21T20:51:15.250Z,5.03
2018-06-21T20:53:43.880Z,2.10
2018-06-21T20:56:13.972Z,6.70
2018-06-21T20:58:44.101Z,2.23
2018-06-21T21:01:12.909Z,4.10
2018-06-21T21:03:42.980Z,6.70
2018-06-21T21:06:11.465Z,2.60
2018-06-21T21:08:39.916Z,4.53
2018-06-21T21:11:08.308Z,3.30
2018-06-21T21:13:36.520Z,4.40
2018-06-21T21:16:04.999Z,3.33
2018-06-21T21:18:33.585Z,2.63
2018-06-21T21:21:02.130Z,4.07
2018-06-21T21:23:30.282Z,2.97
2018-06-21T21:25:58.792Z,3.17
2018-06-21T21:28:27.283Z,5.27
2018-06-21T21:30:56.116Z,6.47
2018-06-21T21:33:24.584Z,5.03
2018-06-21T21:35:53.045Z,6.43
2018-06-21T21:38:21.543Z,3.20
2018-06-21T21:40:50.041Z,6.23
2018-06-21T21:43:18.955Z,2.00
2018-06-21T21:45:47.417Z,5.47
2018-06-21T21:48:15.866Z,3.57
2018-06-21T21:50:44.054Z,5.27
2018-06-21T21:53:13.157Z,3.07
2018-06-21T21:55:41.680Z,5.37
2018-06-21T21:58:10.236Z,3.30
2018-06-21T22:00:45.105Z,3.60
2018-06-21T22:03:13.472Z,3.33
2018-06-21T22:05:43.563Z,4.17
2018-06-21T22:08:12.465Z,1.93
2018-06-21T22:10:42.967Z,4.73
2018-06-21T22:13:12.792Z,5.60
2018-06-21T22:15:41.396Z,5.43
2018-06-21T22:18:10.140Z,1.83
2018-06-21T22:20:40.430Z,5.03
2018-06-21T22:23:09.825Z,5.60
2018-06-21T22:25:38.934Z,5.93
2018-06-21T22:28:07.340Z,3.73
2018-06-21T22:30:35.955Z,5.87
2018-06-21T22:33:04.590Z,5.53
2018-06-21T22:35:33.692Z,3.00
2018-06-21T22:38:03.524Z,6.93
2018-06-21T22:40:33.843Z,3.90
2018-06-21T22:43:02.927Z,5.17
2018-06-21T22:45:31.722Z,8.47
2018-06-21T22:48:00.099Z,7.10
2018-06-21T22:50:28.519Z,6.07
2018-06-21T22:52:57.488Z,5.13
2018-06-21T22:55:27.948Z,6.57
2018-06-21T22:57:56.845Z,6.30
2018-06-21T23:00:25.283Z,5.27
2018-06-21T23:02:53.749Z,3.47
2018-06-21T23:05:22.283Z,3.27
2018-06-21T23:07:50.966Z,4.97
2018-06-21T23:10:19.517Z,6.40
2018-06-21T23:12:47.661Z,5.77
2018-06-21T23:15:16.263Z,3.87
2018-06-21T23:17:46.312Z,4.43
2018-06-21T23:20:14.743Z,5.57
2018-06-21T23:22:44.119Z,6.23
2018-06-21T23:25:12.532Z,4.17
2018-06-21T23:27:41.076Z,4.83
2018-06-21T23:30:09.479Z,4.13
2018-06-21T23:32:38.322Z,6.00
2018-06-21T23:35:07.247Z,3.07
2018-06-21T23:37:35.644Z,5.33
2018-06-21T23:40:04.098Z,5.73
2018-06-21T23:42:32.521Z,5.10
2018-06-21T23:45:01.330Z,6.73
2018-06-21T23:47:29.421Z,6.70
2018-06-21T23:49:58.560Z,3.20
2018-06-21T23:52:27.863Z,3.20
2018-06-21T23:54:56.279Z,8.80
2018-06-21T23:57:25.512Z,4.23
2018-06-21T23:59:55.501Z,6.50
